sensor_id;sensor_type;location;lat;lon;timestamp;pressure;altitude;pressure_sealevel;temperature;humidity
78894;BME280;68282;42.698;23.350;2024-03-23T00:51:06;95545.72;;;8.93;44.92
78894;BME280;68282;42.698;23.350;2024-03-23T00:53:32;95536.34;;;8.89;44.84
78894;BME280;68282;42.698;23.350;2024-03-23T00:55:59;95535.81;;;8.80;45.04
78894;BME280;68282;42.698;23.350;2024-03-23T00:58:24;95545.34;;;8.90;44.91
78894;BME280;68282;42.698;23.350;2024-03-23T01:00:50;95532.44;;;8.85;44.59
78894;BME280;68282;42.698;23.350;2024-03-23T01:03:15;95516.66;;;8.75;44.96
78894;BME280;68282;42.698;23.350;2024-03-23T01:05:42;95522.03;;;8.82;45.00
78894;BME280;68282;42.698;23.350;2024-03-23T01:08:12;95518.00;;;8.66;45.43
78894;BME280;68282;42.698;23.350;2024-03-23T01:10:37;95515.28;;;8.66;45.15
78894;BME280;68282;42.698;23.350;2024-03-23T01:13:03;95524.41;;;8.72;45.37
78894;BME280;68282;42.698;23.350;2024-03-23T01:15:29;95520.28;;;8.69;45.42
78894;BME280;68282;42.698;23.350;2024-03-23T01:17:54;95521.94;;;8.70;45.39
78894;BME280;68282;42.698;23.350;2024-03-23T01:20:20;95516.78;;;8.62;45.51
78894;BME280;68282;42.698;23.350;2024-03-23T01:22:45;95512.69;;;8.46;45.92
78894;BME280;68282;42.698;23.350;2024-03-23T01:25:11;95516.50;;;8.38;45.98
78894;BME280;68282;42.698;23.350;2024-03-23T01:27:37;95523.78;;;8.44;45.79
78894;BME280;68282;42.698;23.350;2024-03-23T01:30:06;95525.22;;;8.47;46.36
78894;BME280;68282;42.698;23.350;2024-03-23T01:32:32;95497.66;;;8.25;46.05
78894;BME280;68282;42.698;23.350;2024-03-23T01:34:58;95531.50;;;8.47;45.87
78894;BME280;68282;42.698;23.350;2024-03-23T01:37:23;95515.97;;;8.29;46.35
78894;BME280;68282;42.698;23.350;2024-03-23T01:50:08;95527.13;;;8.14;46.47
78894;BME280;68282;42.698;23.350;2024-03-23T01:52:36;95504.63;;;8.07;46.54
78894;BME280;68282;42.698;23.350;2024-03-23T01:55:01;95508.66;;;7.98;46.24
78894;BME280;68282;42.698;23.350;2024-03-23T01:57:27;95494.31;;;7.97;46.27
78894;BME280;68282;42.698;23.350;2024-03-23T01:59:53;95531.66;;;8.20;46.56
78894;BME280;68282;42.698;23.350;2024-03-23T02:02:18;95524.41;;;8.14;46.48
78894;BME280;68282;42.698;23.350;2024-03-23T02:04:45;95524.84;;;8.11;46.47
78894;BME280;68282;42.698;23.350;2024-03-23T02:07:10;95528.41;;;8.05;46.74
78894;BME280;68282;42.698;23.350;2024-03-23T02:09:36;95526.97;;;8.02;46.62
78894;BME280;68282;42.698;23.350;2024-03-23T02:12:02;95521.44;;;7.84;47.00
78894;BME280;68282;42.698;23.350;2024-03-23T02:14:28;95522.63;;;7.95;47.46
78894;BME280;68282;42.698;23.350;2024-03-23T02:16:53;95515.78;;;7.92;46.75
78894;BME280;68282;42.698;23.350;2024-03-23T02:19:19;95520.56;;;7.90;47.15
78894;BME280;68282;42.698;23.350;2024-03-23T02:21:45;95533.06;;;7.91;47.07
78894;BME280;68282;42.698;23.350;2024-03-23T02:24:13;95530.81;;;7.88;46.83
78894;BME280;68282;42.698;23.350;2024-03-23T02:26:38;95521.47;;;7.77;47.57
78894;BME280;68282;42.698;23.350;2024-03-23T02:29:04;95523.97;;;7.79;47.04
78894;BME280;68282;42.698;23.350;2024-03-23T02:31:29;95536.03;;;7.83;47.41
78894;BME280;68282;42.698;23.350;2024-03-23T02:33:55;95530.41;;;7.78;47.32
78894;BME280;68282;42.698;23.350;2024-03-23T02:36:20;95525.94;;;7.58;47.91
78894;BME280;68282;42.698;23.350;2024-03-23T02:38:46;95529.03;;;7.62;47.21
78894;BME280;68282;42.698;23.350;2024-03-23T02:41:12;95537.78;;;7.64;47.24
78894;BME280;68282;42.698;23.350;2024-03-23T02:43:38;95532.19;;;7.58;47.43
78894;BME280;68282;42.698;23.350;2024-03-23T02:46:04;95530.50;;;7.64;47.99
78894;BME280;68282;42.698;23.350;2024-03-23T02:48:30;95539.88;;;7.62;47.75
78894;BME280;68282;42.698;23.350;2024-03-23T02:50:55;95534.81;;;7.72;47.59
78894;BME280;68282;42.698;23.350;2024-03-23T02:53:21;95543.75;;;7.79;47.34
78894;BME280;68282;42.698;23.350;2024-03-23T02:55:48;95512.16;;;7.66;46.85
78894;BME280;68282;42.698;23.350;2024-03-23T02:58:14;95537.34;;;7.73;47.56
78894;BME280;68282;42.698;23.350;2024-03-23T03:00:39;95523.63;;;7.62;46.90
78894;BME280;68282;42.698;23.350;2024-03-23T03:03:06;95528.25;;;7.54;46.91
78894;BME280;68282;42.698;23.350;2024-03-23T03:18:26;95529.78;;;7.37;47.33
78894;BME280;68282;42.698;23.350;2024-03-23T03:20:54;95520.81;;;7.36;47.55
78894;BME280;68282;42.698;23.350;2024-03-23T03:23:20;95527.88;;;7.37;47.71
78894;BME280;68282;42.698;23.350;2024-03-23T03:25:45;95536.66;;;7.26;47.69
78894;BME280;68282;42.698;23.350;2024-03-23T03:28:11;95527.94;;;7.17;47.38
78894;BME280;68282;42.698;23.350;2024-03-23T03:30:36;95529.19;;;7.21;47.66
78894;BME280;68282;42.698;23.350;2024-03-23T03:33:02;95540.63;;;7.23;47.81
78894;BME280;68282;42.698;23.350;2024-03-23T03:35:27;95525.06;;;7.12;48.08
78894;BME280;68282;42.698;23.350;2024-03-23T03:37:55;95525.88;;;7.06;47.79
78894;BME280;68282;42.698;23.350;2024-03-23T03:40:20;95532.75;;;7.15;47.86
78894;BME280;68282;42.698;23.350;2024-03-23T03:42:46;95537.94;;;7.10;48.08
78894;BME280;68282;42.698;23.350;2024-03-23T03:45:11;95544.16;;;7.17;48.02
78894;BME280;68282;42.698;23.350;2024-03-23T03:47:37;95519.22;;;7.15;47.65
78894;BME280;68282;42.698;23.350;2024-03-23T03:50:02;95538.34;;;7.20;48.09
78894;BME280;68282;42.698;23.350;2024-03-23T03:52:28;95537.94;;;7.17;48.06
78894;BME280;68282;42.698;23.350;2024-03-23T03:55:00;95535.47;;;7.15;47.68
78894;BME280;68282;42.698;23.350;2024-03-23T03:57:27;95541.44;;;7.24;47.38
78894;BME280;68282;42.698;23.350;2024-03-23T03:59:52;95544.38;;;7.22;47.69
78894;BME280;68282;42.698;23.350;2024-03-23T04:02:18;95536.50;;;7.14;47.96
78894;BME280;68282;42.698;23.350;2024-03-23T04:04:45;95545.44;;;7.15;47.88
78894;BME280;68282;42.698;23.350;2024-03-23T04:07:10;95531.91;;;7.08;48.03
78894;BME280;68282;42.698;23.350;2024-03-23T04:09:36;95534.63;;;7.08;48.18
78894;BME280;68282;42.698;23.350;2024-03-23T04:12:01;95542.53;;;7.09;48.14
78894;BME280;68282;42.698;23.350;2024-03-23T04:14:27;95553.38;;;7.09;47.95
78894;BME280;68282;42.698;23.350;2024-03-23T04:16:52;95555.44;;;7.07;47.86
78894;BME280;68282;42.698;23.350;2024-03-23T04:19:18;95538.38;;;7.00;48.42
78894;BME280;68282;42.698;23.350;2024-03-23T04:21:43;95546.72;;;6.99;48.35
78894;BME280;68282;42.698;23.350;2024-03-23T04:24:09;95536.34;;;6.82;48.51
78894;BME280;68282;42.698;23.350;2024-03-23T04:26:43;95538.00;;;6.83;48.48
78894;BME280;68282;42.698;23.350;2024-03-23T04:29:09;95547.34;;;6.87;48.22
78894;BME280;68282;42.698;23.350;2024-03-23T04:31:34;95554.81;;;6.99;47.88
78894;BME280;68282;42.698;23.350;2024-03-23T04:34:01;95534.47;;;6.83;48.36
78894;BME280;68282;42.698;23.350;2024-03-23T04:36:28;95536.13;;;6.84;48.54
78894;BME280;68282;42.698;23.350;2024-03-23T04:38:54;95542.97;;;6.86;48.02
78894;BME280;68282;42.698;23.350;2024-03-23T04:41:19;95557.13;;;6.88;48.00
78894;BME280;68282;42.698;23.350;2024-03-23T04:43:45;95563.97;;;6.97;47.91
78894;BME280;68282;42.698;23.350;2024-03-23T04:46:10;95541.53;;;6.90;47.98
78894;BME280;68282;42.698;23.350;2024-03-23T04:48:36;95549.88;;;6.89;47.64
78894;BME280;68282;42.698;23.350;2024-03-23T04:51:02;95558.56;;;6.91;48.06
78894;BME280;68282;42.698;23.350;2024-03-23T04:53:27;95560.22;;;6.99;47.73
78894;BME280;68282;42.698;23.350;2024-03-23T04:55:56;95558.38;;;6.99;48.09
78894;BME280;68282;42.698;23.350;2024-03-23T04:58:22;95563.34;;;7.02;48.27
78894;BME280;68282;42.698;23.350;2024-03-23T05:00:54;95569.38;;;6.97;48.00
78894;BME280;68282;42.698;23.350;2024-03-23T05:03:19;95566.28;;;6.94;48.40
78894;BME280;68282;42.698;23.350;2024-03-23T05:05:47;95561.72;;;6.94;48.56
78894;BME280;68282;42.698;23.350;2024-03-23T05:08:13;95555.06;;;6.90;48.53
78894;BME280;68282;42.698;23.350;2024-03-23T05:10:38;95557.53;;;6.92;48.44
78894;BME280;68282;42.698;23.350;2024-03-23T05:13:05;95558.78;;;6.96;48.56
78894;BME280;68282;42.698;23.350;2024-03-23T05:15:30;95559.81;;;6.95;48.80
78894;BME280;68282;42.698;23.350;2024-03-23T05:17:56;95555.06;;;6.90;49.04
78894;BME280;68282;42.698;23.350;2024-03-23T05:20:21;95551.31;;;6.98;48.59
78894;BME280;68282;42.698;23.350;2024-03-23T05:22:47;95544.63;;;7.01;48.13
78894;BME280;68282;42.698;23.350;2024-03-23T05:25:12;95551.06;;;7.13;48.40
78894;BME280;68282;42.698;23.350;2024-03-23T05:27:38;95555.63;;;7.19;48.00
78894;BME280;68282;42.698;23.350;2024-03-23T05:30:04;95538.75;;;7.17;48.25
78894;BME280;68282;42.698;23.350;2024-03-23T05:32:31;95558.28;;;7.33;47.78
78894;BME280;68282;42.698;23.350;2024-03-23T05:34:56;95538.16;;;7.22;47.68
78894;BME280;68282;42.698;23.350;2024-03-23T05:37:23;95552.47;;;7.29;47.75
78894;BME280;68282;42.698;23.350;2024-03-23T05:39:49;95561.63;;;7.35;47.90
78894;BME280;68282;42.698;23.350;2024-03-23T05:42:18;95552.88;;;7.39;48.19
78894;BME280;68282;42.698;23.350;2024-03-23T05:44:44;95552.84;;;7.46;47.60
78894;BME280;68282;42.698;23.350;2024-03-23T05:47:10;95561.56;;;7.55;47.93
78894;BME280;68282;42.698;23.350;2024-03-23T05:49:38;95548.44;;;7.58;47.57
78894;BME280;68282;42.698;23.350;2024-03-23T05:52:03;95553.59;;;7.67;47.60
78894;BME280;68282;42.698;23.350;2024-03-23T05:54:29;95552.34;;;7.69;47.77
78894;BME280;68282;42.698;23.350;2024-03-23T05:56:55;95561.91;;;7.72;47.46
78894;BME280;68282;42.698;23.350;2024-03-23T05:59:21;95555.63;;;7.78;47.15
78894;BME280;68282;42.698;23.350;2024-03-23T06:01:47;95556.47;;;7.72;47.60
78894;BME280;68282;42.698;23.350;2024-03-23T06:04:13;95556.44;;;7.85;46.56
78894;BME280;68282;42.698;23.350;2024-03-23T06:06:39;95546.88;;;7.83;46.58
78894;BME280;68282;42.698;23.350;2024-03-23T06:09:05;95536.28;;;7.74;46.85
78894;BME280;68282;42.698;23.350;2024-03-23T06:11:30;95534.22;;;7.70;46.88
78894;BME280;68282;42.698;23.350;2024-03-23T06:13:56;95549.19;;;7.79;46.56
78894;BME280;68282;42.698;23.350;2024-03-23T06:16:22;95535.63;;;7.79;46.92
78894;BME280;68282;42.698;23.350;2024-03-23T06:18:51;95537.03;;;7.88;46.87
78894;BME280;68282;42.698;23.350;2024-03-23T06:21:16;95538.50;;;7.84;46.57
78894;BME280;68282;42.698;23.350;2024-03-23T06:23:42;95547.44;;;7.98;46.57
78894;BME280;68282;42.698;23.350;2024-03-23T06:26:08;95537.44;;;7.92;46.85
78894;BME280;68282;42.698;23.350;2024-03-23T06:28:34;95535.31;;;8.01;46.74
78894;BME280;68282;42.698;23.350;2024-03-23T06:30:59;95547.13;;;8.13;46.20
78894;BME280;68282;42.698;23.350;2024-03-23T06:33:25;95529.00;;;8.07;46.22
78894;BME280;68282;42.698;23.350;2024-03-23T06:35:51;95530.75;;;7.95;46.06
78894;BME280;68282;42.698;23.350;2024-03-23T06:38:18;95546.94;;;8.08;46.52
78894;BME280;68282;42.698;23.350;2024-03-23T06:40:44;95542.91;;;8.17;46.59
78894;BME280;68282;42.698;23.350;2024-03-23T06:43:13;95529.59;;;8.16;46.42
78894;BME280;68282;42.698;23.350;2024-03-23T06:45:39;95533.03;;;8.30;45.73
78894;BME280;68282;42.698;23.350;2024-03-23T06:48:05;95526.81;;;8.29;45.35
78894;BME280;68282;42.698;23.350;2024-03-23T06:50:33;95535.28;;;8.40;46.05
78894;BME280;68282;42.698;23.350;2024-03-23T06:52:59;95541.69;;;8.52;45.61
78894;BME280;68282;42.698;23.350;2024-03-23T06:55:27;95526.66;;;8.49;45.80
78894;BME280;68282;42.698;23.350;2024-03-23T06:57:53;95521.50;;;8.41;45.83
78894;BME280;68282;42.698;23.350;2024-03-23T07:00:18;95534.31;;;8.59;45.44
78894;BME280;68282;42.698;23.350;2024-03-23T07:02:45;95540.69;;;8.72;45.48
78894;BME280;68282;42.698;23.350;2024-03-23T07:05:10;95526.75;;;8.68;44.64
78894;BME280;68282;42.698;23.350;2024-03-23T07:07:38;95509.81;;;8.73;44.80
78894;BME280;68282;42.698;23.350;2024-03-23T07:10:05;95505.75;;;8.82;44.57
78894;BME280;68282;42.698;23.350;2024-03-23T07:12:30;95516.19;;;9.04;44.82
78894;BME280;68282;42.698;23.350;2024-03-23T07:14:56;95515.91;;;9.12;44.47
78894;BME280;68282;42.698;23.350;2024-03-23T07:17:21;95504.97;;;9.19;44.68
78894;BME280;68282;42.698;23.350;2024-03-23T07:19:47;95514.84;;;9.32;44.22
78894;BME280;68282;42.698;23.350;2024-03-23T07:22:13;95515.75;;;9.44;44.06
78894;BME280;68282;42.698;23.350;2024-03-23T07:24:40;95519.31;;;9.44;44.23
78894;BME280;68282;42.698;23.350;2024-03-23T07:27:05;95505.50;;;9.46;44.07
78894;BME280;68282;42.698;23.350;2024-03-23T07:29:37;95504.00;;;9.50;43.97
78894;BME280;68282;42.698;23.350;2024-03-23T07:32:03;95501.56;;;9.61;43.98
78894;BME280;68282;42.698;23.350;2024-03-23T07:34:29;95496.75;;;9.63;43.12
78894;BME280;68282;42.698;23.350;2024-03-23T07:36:54;95486.63;;;9.70;43.25
78894;BME280;68282;42.698;23.350;2024-03-23T07:39:20;95486.53;;;9.77;43.05
78894;BME280;68282;42.698;23.350;2024-03-23T07:41:45;95501.97;;;9.95;43.16
78894;BME280;68282;42.698;23.350;2024-03-23T07:44:11;95494.06;;;9.74;42.44
78894;BME280;68282;42.698;23.350;2024-03-23T07:46:36;95495.59;;;9.70;43.16
78894;BME280;68282;42.698;23.350;2024-03-23T07:49:04;95499.78;;;9.85;43.28
78894;BME280;68282;42.698;23.350;2024-03-23T07:51:29;95491.72;;;9.97;42.91
78894;BME280;68282;42.698;23.350;2024-03-23T07:53:55;95480.59;;;9.98;42.65
78894;BME280;68282;42.698;23.350;2024-03-23T07:56:24;95462.63;;;9.97;42.38
78894;BME280;68282;42.698;23.350;2024-03-23T07:58:51;95459.72;;;10.11;43.31
78894;BME280;68282;42.698;23.350;2024-03-23T08:01:37;95492.41;;;10.34;42.73
78894;BME280;68282;42.698;23.350;2024-03-23T08:04:03;95470.28;;;10.31;42.48
78894;BME280;68282;42.698;23.350;2024-03-23T08:06:28;95468.75;;;10.23;42.79
78894;BME280;68282;42.698;23.350;2024-03-23T08:08:55;95474.78;;;10.37;43.02
78894;BME280;68282;42.698;23.350;2024-03-23T08:11:28;95479.94;;;10.57;42.07
78894;BME280;68282;42.698;23.350;2024-03-23T08:13:54;95468.38;;;10.62;41.93
78894;BME280;68282;42.698;23.350;2024-03-23T08:16:20;95481.97;;;10.62;41.37
78894;BME280;68282;42.698;23.350;2024-03-23T08:18:53;95474.50;;;10.81;41.24
78894;BME280;68282;42.698;23.350;2024-03-23T08:21:20;95460.91;;;10.81;41.14
78894;BME280;68282;42.698;23.350;2024-03-23T08:23:46;95472.16;;;10.96;40.47
78894;BME280;68282;42.698;23.350;2024-03-23T08:26:12;95468.09;;;10.99;40.15
78894;BME280;68282;42.698;23.350;2024-03-23T08:28:39;95468.22;;;10.92;39.87
78894;BME280;68282;42.698;23.350;2024-03-23T08:31:08;95447.88;;;10.59;40.66
78894;BME280;68282;42.698;23.350;2024-03-23T08:33:48;95452.50;;;10.71;41.07
78894;BME280;68282;42.698;23.350;2024-03-23T08:36:13;95462.66;;;10.99;41.11
78894;BME280;68282;42.698;23.350;2024-03-23T08:38:43;95439.97;;;11.05;41.45
78894;BME280;68282;42.698;23.350;2024-03-23T08:41:10;95429.88;;;11.06;40.48
78894;BME280;68282;42.698;23.350;2024-03-23T08:43:39;95452.72;;;11.17;39.85
78894;BME280;68282;42.698;23.350;2024-03-23T08:46:13;95447.38;;;11.34;39.97
78894;BME280;68282;42.698;23.350;2024-03-23T08:48:40;95434.44;;;11.41;40.31
78894;BME280;68282;42.698;23.350;2024-03-23T08:51:09;95418.88;;;11.53;40.10
78894;BME280;68282;42.698;23.350;2024-03-23T08:53:37;95411.97;;;11.63;39.53
78894;BME280;68282;42.698;23.350;2024-03-23T08:56:06;95404.63;;;11.63;39.27
78894;BME280;68282;42.698;23.350;2024-03-23T08:58:32;95411.22;;;11.79;39.06
78894;BME280;68282;42.698;23.350;2024-03-23T09:01:06;95428.53;;;12.02;38.51
78894;BME280;68282;42.698;23.350;2024-03-23T09:03:31;95426.97;;;12.06;38.19
78894;BME280;68282;42.698;23.350;2024-03-23T09:05:57;95419.28;;;12.20;38.25
78894;BME280;68282;42.698;23.350;2024-03-23T09:08:24;95412.94;;;12.31;39.30
78894;BME280;68282;42.698;23.350;2024-03-23T09:10:49;95399.06;;;12.33;38.78
78894;BME280;68282;42.698;23.350;2024-03-23T09:13:15;95407.25;;;12.50;38.32
78894;BME280;68282;42.698;23.350;2024-03-23T09:15:51;95403.94;;;12.65;36.60
78894;BME280;68282;42.698;23.350;2024-03-23T09:18:22;95389.22;;;12.66;36.51
78894;BME280;68282;42.698;23.350;2024-03-23T09:20:47;95383.16;;;12.81;36.26
78894;BME280;68282;42.698;23.350;2024-03-23T09:23:13;95384.63;;;12.89;37.03
78894;BME280;68282;42.698;23.350;2024-03-23T09:25:39;95385.31;;;13.01;36.37
78894;BME280;68282;42.698;23.350;2024-03-23T09:28:05;95370.03;;;13.00;36.61
78894;BME280;68282;42.698;23.350;2024-03-23T09:30:33;95359.75;;;13.07;35.98
78894;BME280;68282;42.698;23.350;2024-03-23T09:33:02;95353.59;;;13.17;36.62
78894;BME280;68282;42.698;23.350;2024-03-23T09:35:28;95349.56;;;13.25;36.15
78894;BME280;68282;42.698;23.350;2024-03-23T09:37:55;95358.00;;;13.40;36.22
78894;BME280;68282;42.698;23.350;2024-03-23T09:40:20;95352.56;;;13.45;36.31
78894;BME280;68282;42.698;23.350;2024-03-23T09:42:52;95342.28;;;13.53;35.61
78894;BME280;68282;42.698;23.350;2024-03-23T09:45:21;95339.34;;;13.59;36.05
78894;BME280;68282;42.698;23.350;2024-03-23T09:47:47;95340.34;;;13.75;35.88
78894;BME280;68282;42.698;23.350;2024-03-23T09:50:13;95323.31;;;13.68;35.37
78894;BME280;68282;42.698;23.350;2024-03-23T09:52:40;95320.56;;;13.68;36.50
78894;BME280;68282;42.698;23.350;2024-03-23T09:55:08;95318.47;;;13.75;35.60
78894;BME280;68282;42.698;23.350;2024-03-23T09:57:34;95320.06;;;13.71;34.63
78894;BME280;68282;42.698;23.350;2024-03-23T10:00:00;95316.81;;;13.74;34.92
78894;BME280;68282;42.698;23.350;2024-03-23T10:02:25;95315.31;;;13.89;34.43
78894;BME280;68282;42.698;23.350;2024-03-23T10:04:51;95315.16;;;14.06;34.27
78894;BME280;68282;42.698;23.350;2024-03-23T10:07:20;95307.78;;;14.06;34.82
78894;BME280;68282;42.698;23.350;2024-03-23T10:09:47;95282.03;;;13.97;34.98
78894;BME280;68282;42.698;23.350;2024-03-23T10:12:16;95284.03;;;14.12;34.53
78894;BME280;68282;42.698;23.350;2024-03-23T10:14:42;95273.69;;;14.19;34.40
78894;BME280;68282;42.698;23.350;2024-03-23T10:17:12;95287.25;;;14.42;34.26
78894;BME280;68282;42.698;23.350;2024-03-23T10:19:58;95286.63;;;14.29;33.27
78894;BME280;68282;42.698;23.350;2024-03-23T10:22:24;95273.81;;;14.35;34.51
78894;BME280;68282;42.698;23.350;2024-03-23T10:24:50;95291.47;;;14.60;33.19
78894;BME280;68282;42.698;23.350;2024-03-23T10:29:51;95265.38;;;14.42;31.67
78894;BME280;68282;42.698;23.350;2024-03-23T10:32:17;95261.91;;;14.57;32.50
78894;BME280;68282;42.698;23.350;2024-03-23T10:34:43;95260.94;;;14.83;32.63
78894;BME280;68282;42.698;23.350;2024-03-23T10:37:09;95251.47;;;15.07;32.06
78894;BME280;68282;42.698;23.350;2024-03-23T10:39:37;95249.56;;;15.18;30.84
78894;BME280;68282;42.698;23.350;2024-03-23T10:42:03;95240.28;;;15.24;31.32
78894;BME280;68282;42.698;23.350;2024-03-23T10:44:30;95242.78;;;15.46;32.38
78894;BME280;68282;42.698;23.350;2024-03-23T10:47:02;95238.13;;;15.52;30.32
78894;BME280;68282;42.698;23.350;2024-03-23T10:49:36;95221.97;;;15.50;29.83
78894;BME280;68282;42.698;23.350;2024-03-23T10:52:03;95220.63;;;15.68;29.98
78894;BME280;68282;42.698;23.350;2024-03-23T10:54:33;95219.53;;;15.69;29.75
78894;BME280;68282;42.698;23.350;2024-03-23T10:57:15;95214.59;;;15.97;29.99
78894;BME280;68282;42.698;23.350;2024-03-23T10:59:44;95204.41;;;16.13;29.97
78894;BME280;68282;42.698;23.350;2024-03-23T11:02:19;95192.38;;;15.94;28.83
78894;BME280;68282;42.698;23.350;2024-03-23T11:04:45;95185.22;;;16.13;28.45
78894;BME280;68282;42.698;23.350;2024-03-23T11:07:32;95174.78;;;16.15;28.27
78894;BME280;68282;42.698;23.350;2024-03-23T11:09:59;95170.66;;;16.23;28.48
78894;BME280;68282;42.698;23.350;2024-03-23T11:12:26;95173.94;;;16.20;28.56
78894;BME280;68282;42.698;23.350;2024-03-23T11:15:06;95168.72;;;16.23;27.76
78894;BME280;68282;42.698;23.350;2024-03-23T11:17:36;95156.63;;;16.40;28.66
78894;BME280;68282;42.698;23.350;2024-03-23T11:20:03;95152.19;;;16.44;28.33
78894;BME280;68282;42.698;23.350;2024-03-23T11:27:57;95134.22;;;17.23;27.21
78894;BME280;68282;42.698;23.350;2024-03-23T11:30:27;95114.09;;;17.33;27.42
78894;BME280;68282;42.698;23.350;2024-03-23T11:32:57;95115.88;;;17.53;27.79
78894;BME280;68282;42.698;23.350;2024-03-23T11:38:11;95118.22;;;17.99;27.22
78894;BME280;68282;42.698;23.350;2024-03-23T11:40:38;95110.38;;;18.12;26.73
78894;BME280;68282;42.698;23.350;2024-03-23T11:43:05;95107.72;;;18.26;25.88
78894;BME280;68282;42.698;23.350;2024-03-23T11:45:36;95090.69;;;17.99;25.67
78894;BME280;68282;42.698;23.350;2024-03-23T11:48:05;95092.63;;;18.23;25.60
78894;BME280;68282;42.698;23.350;2024-03-23T11:50:32;95093.66;;;18.03;25.13
78894;BME280;68282;42.698;23.350;2024-03-23T11:55:52;95087.19;;;18.18;25.69
78894;BME280;68282;42.698;23.350;2024-03-23T11:58:19;95076.13;;;17.93;25.27
78894;BME280;68282;42.698;23.350;2024-03-23T12:03:22;95066.09;;;18.08;25.16
78894;BME280;68282;42.698;23.350;2024-03-23T12:05:52;95062.22;;;18.33;25.38
78894;BME280;68282;42.698;23.350;2024-03-23T12:10:50;95037.25;;;18.49;25.01
78894;BME280;68282;42.698;23.350;2024-03-23T12:13:20;95036.44;;;18.67;24.96
78894;BME280;68282;42.698;23.350;2024-03-23T12:15:48;95025.06;;;18.74;25.73
78894;BME280;68282;42.698;23.350;2024-03-23T12:18:14;95033.91;;;18.90;25.00
78894;BME280;68282;42.698;23.350;2024-03-23T12:20:40;95015.88;;;18.79;24.49
78894;BME280;68282;42.698;23.350;2024-03-23T12:23:08;95011.34;;;18.88;24.70
78894;BME280;68282;42.698;23.350;2024-03-23T12:25:35;95014.19;;;18.83;23.94
78894;BME280;68282;42.698;23.350;2024-03-23T12:28:01;95014.88;;;18.94;24.19
78894;BME280;68282;42.698;23.350;2024-03-23T12:30:26;95011.00;;;18.95;23.06
78894;BME280;68282;42.698;23.350;2024-03-23T12:32:52;94999.38;;;18.98;24.05
78894;BME280;68282;42.698;23.350;2024-03-23T12:35:17;95002.03;;;19.03;24.01
78894;BME280;68282;42.698;23.350;2024-03-23T12:37:43;94994.44;;;19.14;24.19
78894;BME280;68282;42.698;23.350;2024-03-23T12:40:09;94991.28;;;19.21;23.86
78894;BME280;68282;42.698;23.350;2024-03-23T12:42:35;94973.63;;;19.22;23.47
78894;BME280;68282;42.698;23.350;2024-03-23T12:45:00;94988.94;;;19.28;22.76
78894;BME280;68282;42.698;23.350;2024-03-23T12:47:26;94990.03;;;19.13;22.88
78894;BME280;68282;42.698;23.350;2024-03-23T12:49:52;94976.81;;;18.96;23.31
78894;BME280;68282;42.698;23.350;2024-03-23T12:52:17;94974.03;;;18.96;23.83
78894;BME280;68282;42.698;23.350;2024-03-23T12:54:45;94984.31;;;19.09;24.17
78894;BME280;68282;42.698;23.350;2024-03-23T12:57:10;94974.84;;;18.96;22.36
78894;BME280;68282;42.698;23.350;2024-03-23T12:59:39;94966.44;;;18.88;22.69
78894;BME280;68282;42.698;23.350;2024-03-23T13:02:06;94958.34;;;18.77;23.45
78894;BME280;68282;42.698;23.350;2024-03-23T13:04:37;94959.66;;;18.80;21.37
78894;BME280;68282;42.698;23.350;2024-03-23T13:07:02;94953.72;;;18.73;21.01
78894;BME280;68282;42.698;23.350;2024-03-23T13:09:28;94939.22;;;18.67;21.36
78894;BME280;68282;42.698;23.350;2024-03-23T13:11:54;94949.25;;;18.77;21.18
78894;BME280;68282;42.698;23.350;2024-03-23T13:14:19;94947.00;;;18.79;21.93
78894;BME280;68282;42.698;23.350;2024-03-23T13:16:46;94946.50;;;18.77;23.14
78894;BME280;68282;42.698;23.350;2024-03-23T13:19:11;94944.19;;;18.84;22.13
78894;BME280;68282;42.698;23.350;2024-03-23T13:21:37;94937.63;;;18.80;22.13
78894;BME280;68282;42.698;23.350;2024-03-23T13:24:02;94930.47;;;18.79;22.24
78894;BME280;68282;42.698;23.350;2024-03-23T13:26:28;94928.31;;;18.76;21.54
78894;BME280;68282;42.698;23.350;2024-03-23T13:28:54;94931.06;;;18.76;20.74
78894;BME280;68282;42.698;23.350;2024-03-23T13:31:19;94907.72;;;18.73;20.37
78894;BME280;68282;42.698;23.350;2024-03-23T13:33:45;94907.41;;;18.75;22.23
78894;BME280;68282;42.698;23.350;2024-03-23T13:36:10;94910.69;;;18.77;22.62
78894;BME280;68282;42.698;23.350;2024-03-23T13:38:36;94908.13;;;18.80;20.36
78894;BME280;68282;42.698;23.350;2024-03-23T13:41:01;94896.63;;;18.78;19.12
78894;BME280;68282;42.698;23.350;2024-03-23T13:43:29;94909.09;;;18.90;18.45
78894;BME280;68282;42.698;23.350;2024-03-23T13:45:59;94887.00;;;18.76;18.65
78894;BME280;68282;42.698;23.350;2024-03-23T13:48:26;94892.41;;;18.67;18.05
78894;BME280;68282;42.698;23.350;2024-03-23T13:51:04;94893.34;;;18.76;18.42
78894;BME280;68282;42.698;23.350;2024-03-23T13:53:31;94872.72;;;18.74;18.24
78894;BME280;68282;42.698;23.350;2024-03-23T13:55:59;94875.97;;;18.76;18.77
78894;BME280;68282;42.698;23.350;2024-03-23T13:58:25;94886.22;;;18.89;18.47
78894;BME280;68282;42.698;23.350;2024-03-23T14:00:51;94877.91;;;18.94;18.37
78894;BME280;68282;42.698;23.350;2024-03-23T14:03:17;94882.00;;;18.97;17.95
78894;BME280;68282;42.698;23.350;2024-03-23T14:05:44;94889.88;;;19.04;17.62
78894;BME280;68282;42.698;23.350;2024-03-23T14:08:10;94883.31;;;18.99;18.63
78894;BME280;68282;42.698;23.350;2024-03-23T14:10:36;94882.31;;;19.09;18.73
78894;BME280;68282;42.698;23.350;2024-03-23T14:13:05;94879.84;;;19.08;18.44
78894;BME280;68282;42.698;23.350;2024-03-23T14:15:30;94868.16;;;19.16;18.97
78894;BME280;68282;42.698;23.350;2024-03-23T14:17:56;94859.88;;;19.16;17.55
78894;BME280;68282;42.698;23.350;2024-03-23T14:20:22;94852.41;;;19.30;17.49
78894;BME280;68282;42.698;23.350;2024-03-23T14:22:49;94844.38;;;19.34;17.47
78894;BME280;68282;42.698;23.350;2024-03-23T14:25:15;94852.50;;;19.53;18.15